createdAt,value
2022-12-05T00:01:45.748Z,21.93
2022-12-05T00:04:15.477Z,21.87
2022-12-05T00:06:43.963Z,22.93
2022-12-05T00:09:14.315Z,22.27
2022-12-05T00:11:44.638Z,22.93
2022-12-05T00:14:13.179Z,24.60
2022-12-05T00:16:43.030Z,24.37
2022-12-05T00:19:13.188Z,24.33
2022-12-05T00:21:41.062Z,23.87
2022-12-05T00:24:12.527Z,23.67
2022-12-05T00:26:41.412Z,23.37
2022-12-05T00:29:09.136Z,22.37
2022-12-05T00:31:36.735Z,23.20
2022-12-05T00:34:04.619Z,43.80
2022-12-05T00:36:35.196Z,43.27
2022-12-05T00:39:07.301Z,22.33
2022-12-05T00:41:35.222Z,24.13
2022-12-05T00:44:05.507Z,23.07
2022-12-05T00:46:34.291Z,23.73
2022-12-05T00:49:03.272Z,22.63
2022-12-05T00:51:33.108Z,22.17
2022-12-05T00:54:02.679Z,24.60
2022-12-05T00:56:31.888Z,28.57
2022-12-05T00:59:01.355Z,25.57
2022-12-05T01:01:33.588Z,25.00
2022-12-05T01:04:06.443Z,21.87
2022-12-05T01:06:34.364Z,20.87
2022-12-05T01:09:01.961Z,22.10
2022-12-05T01:11:31.694Z,21.43
2022-12-05T01:14:00.850Z,21.73
2022-12-05T01:16:31.606Z,20.77
2022-12-05T01:19:01.712Z,24.53
2022-12-05T01:21:29.414Z,27.47
2022-12-05T01:23:57.660Z,28.47
2022-12-05T01:26:25.825Z,27.57
2022-12-05T01:28:53.691Z,28.53
2022-12-05T01:31:25.282Z,27.20
2022-12-05T01:33:55.516Z,28.00
2022-12-05T01:36:24.143Z,24.70
2022-12-05T01:38:52.327Z,24.50
2022-12-05T01:41:23.722Z,21.80
2022-12-05T01:43:56.090Z,22.80
2022-12-05T01:46:23.905Z,24.47
2022-12-05T01:48:52.651Z,24.80
2022-12-05T01:51:21.724Z,24.33
2022-12-05T01:53:49.365Z,25.57
2022-12-05T01:56:18.049Z,24.60
2022-12-05T01:58:46.808Z,24.03
2022-12-05T02:01:16.918Z,23.47
2022-12-05T02:03:46.743Z,24.80
2022-12-05T02:06:14.591Z,23.87
2022-12-05T02:08:45.239Z,23.37
2022-12-05T02:11:13.411Z,22.93
2022-12-05T02:14:06.970Z,23.07
2022-12-05T02:16:47.759Z,22.40
2022-12-05T02:19:38.432Z,20.67
2022-12-05T02:22:28.291Z,20.37
2022-12-05T02:25:20.333Z,19.73
2022-12-05T02:28:08.306Z,23.17
2022-12-05T02:30:41.312Z,21.10
2022-12-05T02:33:19.794Z,21.33
2022-12-05T02:35:56.378Z,21.80
2022-12-05T02:38:31.177Z,20.30
2022-12-05T02:41:12.529Z,19.10
2022-12-05T02:43:43.075Z,17.23
2022-12-05T02:46:15.432Z,15.73
2022-12-05T02:48:46.012Z,16.33
2022-12-05T02:51:18.492Z,16.00
2022-12-05T02:53:49.152Z,18.07
2022-12-05T02:56:17.060Z,16.50
2022-12-05T02:58:49.767Z,16.57
2022-12-05T03:01:19.643Z,17.37
2022-12-05T03:03:47.313Z,18.07
2022-12-05T03:06:17.072Z,17.63
2022-12-05T03:08:51.967Z,18.33
2022-12-05T03:11:19.702Z,17.50
2022-12-05T03:13:52.201Z,16.77
2022-12-05T03:16:26.693Z,17.33
2022-12-05T03:18:59.482Z,18.60
2022-12-05T03:21:32.772Z,18.30
2022-12-05T03:24:03.868Z,17.83
2022-12-05T03:26:42.384Z,17.50
2022-12-05T03:29:21.962Z,17.60
2022-12-05T03:31:58.301Z,16.00
2022-12-05T03:34:37.170Z,15.10
2022-12-05T03:37:08.834Z,17.47
2022-12-05T03:39:39.044Z,17.40
2022-12-05T03:42:12.859Z,16.20
2022-12-05T03:44:48.624Z,16.40
2022-12-05T03:47:23.962Z,15.10
2022-12-05T03:49:56.836Z,15.43
2022-12-05T03:52:30.866Z,13.80
2022-12-05T03:55:03.408Z,13.60
2022-12-05T03:57:36.821Z,14.83
2022-12-05T04:00:09.881Z,14.37
2022-12-05T04:02:45.573Z,14.30
2022-12-05T04:05:18.754Z,14.13
2022-12-05T04:07:49.872Z,14.33
2022-12-05T04:10:22.179Z,15.20
2022-12-05T04:12:52.847Z,16.10
2022-12-05T04:15:24.608Z,15.13
2022-12-05T04:17:57.311Z,16.47
2022-12-05T04:20:48.148Z,17.07
2022-12-05T04:23:16.134Z,17.60
2022-12-05T04:25:53.655Z,17.77
2022-12-05T04:28:28.589Z,18.53
2022-12-05T04:31:03.942Z,17.83
2022-12-05T04:33:40.828Z,16.93
2022-12-05T04:36:13.870Z,18.33
2022-12-05T04:38:48.471Z,17.20
2022-12-05T04:41:21.841Z,17.80
2022-12-05T04:43:52.123Z,17.77
2022-12-05T04:46:22.027Z,17.10
2022-12-05T04:48:54.659Z,16.70
2022-12-05T04:51:25.062Z,17.70
2022-12-05T04:54:00.176Z,18.80
2022-12-05T04:56:31.533Z,18.93
2022-12-05T04:58:59.075Z,21.33
2022-12-05T05:01:32.667Z,20.93
2022-12-05T05:04:07.950Z,20.03
2022-12-05T05:06:38.354Z,21.57
2022-12-05T05:09:06.094Z,20.63
2022-12-05T05:11:35.526Z,20.63
2022-12-05T05:14:04.175Z,19.43
2022-12-05T05:16:34.971Z,16.87
2022-12-05T05:19:04.753Z,17.97
2022-12-05T05:21:34.858Z,18.37
2022-12-05T05:24:02.992Z,18.83
2022-12-05T05:26:31.756Z,18.10
2022-12-05T05:28:59.515Z,18.67
2022-12-05T05:31:27.242Z,17.87
2022-12-05T05:33:56.536Z,17.50
2022-12-05T05:36:27.230Z,18.83
2022-12-05T05:38:56.514Z,19.50
2022-12-05T05:41:25.635Z,19.03
2022-12-05T05:43:54.371Z,20.10
2022-12-05T05:46:23.863Z,18.53
2022-12-05T05:48:51.504Z,17.40
2022-12-05T05:51:19.956Z,19.73
2022-12-05T05:53:49.730Z,18.87
2022-12-05T05:56:21.745Z,19.63
2022-12-05T05:58:55.798Z,21.10
2022-12-05T06:01:23.449Z,17.50
2022-12-05T06:03:51.420Z,19.80
2022-12-05T06:06:20.432Z,18.87
2022-12-05T06:08:49.432Z,19.53
2022-12-05T06:11:25.330Z,19.23
2022-12-05T06:13:54.039Z,17.87
2022-12-05T06:16:21.918Z,18.10
2022-12-05T06:18:50.185Z,18.63
2022-12-05T06:21:18.399Z,17.97
2022-12-05T06:23:46.712Z,19.23
2022-12-05T06:26:18.195Z,17.57
2022-12-05T06:28:46.079Z,18.63
2022-12-05T06:31:15.497Z,18.00
2022-12-05T06:33:43.230Z,19.63
2022-12-05T06:36:13.591Z,19.03
2022-12-05T06:38:42.543Z,19.03
2022-12-05T06:41:12.968Z,17.80
2022-12-05T06:43:42.318Z,19.83
2022-12-05T06:46:11.736Z,18.00
2022-12-05T06:48:39.810Z,18.40
2022-12-05T06:51:10.831Z,20.17
2022-12-05T06:53:38.838Z,20.80
2022-12-05T06:56:12.387Z,20.40
2022-12-05T06:58:40.027Z,20.87
2022-12-05T07:01:30.299Z,22.13
2022-12-05T07:03:58.065Z,21.83
2022-12-05T07:06:25.992Z,20.23
2022-12-05T07:08:53.668Z,21.20
2022-12-05T07:11:21.292Z,21.27
2022-12-05T07:13:49.004Z,19.13
2022-12-05T07:16:18.005Z,18.60
2022-12-05T07:18:45.627Z,19.27
2022-12-05T07:21:15.555Z,19.97
2022-12-05T07:23:44.806Z,17.53
2022-12-05T07:26:14.957Z,18.60
2022-12-05T07:28:42.832Z,19.33
2022-12-05T07:31:12.006Z,18.63
2022-12-05T07:33:43.098Z,19.10
2022-12-05T07:36:12.737Z,17.57
2022-12-05T07:38:41.149Z,17.67
2022-12-05T07:41:13.297Z,18.93
2022-12-05T07:43:41.388Z,19.67
2022-12-05T07:46:11.286Z,17.80
2022-12-05T07:48:39.319Z,18.80
2022-12-05T07:51:09.726Z,19.10
2022-12-05T07:53:38.950Z,17.83
2022-12-05T07:56:08.673Z,18.67
2022-12-05T07:58:36.938Z,18.60
2022-12-05T08:01:08.968Z,17.07
2022-12-05T08:03:37.354Z,18.20
2022-12-05T08:06:05.355Z,18.40
2022-12-05T08:08:34.606Z,21.03
2022-12-05T08:11:04.567Z,21.13
2022-12-05T08:13:32.123Z,21.23
2022-12-05T08:16:02.626Z,22.43
2022-12-05T08:18:30.456Z,23.90
2022-12-05T08:21:02.811Z,23.07
2022-12-05T08:23:31.282Z,30.47
2022-12-05T08:26:03.939Z,24.90
2022-12-05T08:28:31.576Z,21.80
2022-12-05T08:31:05.927Z,20.63
2022-12-05T08:33:33.700Z,18.23
2022-12-05T08:36:03.090Z,17.30
2022-12-05T08:38:31.029Z,17.60
2022-12-05T08:41:03.245Z,19.60
2022-12-05T08:43:31.210Z,20.10
2022-12-05T08:45:59.689Z,19.20
2022-12-05T08:48:29.653Z,20.83
2022-12-05T08:50:58.160Z,22.00
2022-12-05T08:53:26.254Z,19.73
2022-12-05T08:55:53.783Z,23.33
2022-12-05T08:58:22.707Z,22.77
2022-12-05T09:00:50.230Z,25.57
2022-12-05T09:03:17.780Z,25.13
2022-12-05T09:05:45.423Z,22.77
2022-12-05T09:08:13.110Z,23.60
2022-12-05T09:10:40.670Z,25.67
2022-12-05T09:13:08.194Z,22.70
2022-12-05T09:15:39.214Z,22.13
2022-12-05T09:18:06.871Z,20.80
2022-12-05T09:20:34.658Z,22.47
2022-12-05T09:23:02.208Z,24.03
2022-12-05T09:25:29.736Z,24.67
2022-12-05T09:27:57.276Z,24.60
2022-12-05T09:30:24.836Z,17.37
2022-12-05T09:32:53.706Z,20.10
2022-12-05T09:35:21.594Z,19.20
2022-12-05T09:37:49.094Z,23.80
2022-12-05T09:40:17.700Z,29.77
2022-12-05T09:42:57.705Z,31.70
2022-12-05T09:45:30.147Z,26.40
2022-12-05T09:48:02.245Z,20.43
2022-12-05T09:50:34.550Z,24.40
2022-12-05T09:53:07.390Z,33.30
2022-12-05T09:55:41.445Z,30.37
2022-12-05T09:58:20.562Z,35.13
2022-12-05T10:00:49.629Z,33.57
2022-12-05T10:03:29.571Z,36.87
2022-12-05T10:06:10.419Z,36.33
2022-12-05T10:08:45.678Z,37.90
2022-12-05T10:11:18.979Z,38.23
2022-12-05T10:13:53.968Z,36.57
2022-12-05T10:16:30.398Z,36.63
2022-12-05T10:19:03.678Z,30.10
2022-12-05T10:21:35.267Z,28.70
2022-12-05T10:24:05.066Z,24.37
2022-12-05T10:26:35.568Z,21.53
2022-12-05T10:29:13.154Z,27.47
2022-12-05T10:31:42.157Z,24.03
2022-12-05T10:34:17.634Z,20.10
2022-12-05T10:36:55.814Z,21.80
2022-12-05T10:39:23.557Z,20.23
2022-12-05T10:41:51.333Z,28.30
2022-12-05T10:44:19.028Z,21.90
2022-12-05T10:46:46.884Z,20.50
2022-12-05T10:49:15.796Z,19.87
2022-12-05T10:51:43.466Z,17.57
2022-12-05T10:54:18.731Z,15.90
2022-12-05T10:56:48.077Z,17.27
2022-12-05T10:59:17.619Z,16.17
2022-12-05T11:01:49.339Z,17.57
2022-12-05T11:04:27.681Z,16.77
2022-12-05T11:06:59.531Z,16.43
2022-12-05T11:09:29.723Z,16.90
2022-12-05T11:12:17.648Z,15.73
2022-12-05T11:14:57.118Z,15.70
2022-12-05T11:17:27.626Z,17.93
2022-12-05T11:19:56.510Z,20.37
2022-12-05T11:22:32.101Z,21.10
2022-12-05T11:24:59.956Z,25.23
2022-12-05T11:27:30.076Z,22.83
2022-12-05T11:30:02.629Z,15.83
2022-12-05T11:32:32.549Z,16.30
2022-12-05T11:35:09.978Z,14.53
2022-12-05T11:37:44.392Z,15.10
2022-12-05T11:40:18.192Z,14.97
2022-12-05T11:43:05.532Z,18.83
2022-12-05T11:45:47.985Z,22.87
2022-12-05T11:48:32.895Z,24.80
2022-12-05T11:51:25.252Z,23.33
2022-12-05T11:54:12.674Z,23.17
2022-12-05T11:56:43.238Z,27.90
2022-12-05T11:59:28.628Z,31.03
2022-12-05T12:02:05.643Z,24.63
2022-12-05T12:04:48.119Z,17.27
2022-12-05T12:07:30.743Z,22.90
2022-12-05T12:10:10.429Z,23.23
2022-12-05T12:12:47.041Z,19.00
2022-12-05T12:15:31.004Z,14.50
2022-12-05T12:18:13.883Z,13.87
2022-12-05T12:20:53.580Z,14.03
2022-12-05T12:23:36.593Z,14.23
2022-12-05T12:26:11.221Z,20.13
2022-12-05T12:28:45.583Z,17.00
2022-12-05T12:31:50.683Z,15.73
2022-12-05T12:34:46.636Z,15.70
2022-12-05T12:37:25.706Z,22.03
2022-12-05T12:40:03.815Z,19.47
2022-12-05T12:42:40.414Z,22.23
2022-12-05T12:45:39.377Z,27.90
2022-12-05T12:48:18.554Z,29.23
2022-12-05T12:50:52.254Z,26.53
2022-12-05T12:53:43.348Z,22.57
2022-12-05T12:56:27.356Z,21.13
2022-12-05T12:59:00.536Z,23.00
2022-12-05T13:01:34.910Z,16.23
2022-12-05T13:04:09.493Z,23.43
2022-12-05T13:06:43.882Z,30.63
2022-12-05T13:09:19.710Z,13.47
2022-12-05T13:11:50.715Z,16.80
2022-12-05T13:14:23.347Z,15.77
2022-12-05T13:16:54.232Z,10.80
2022-12-05T13:19:29.558Z,13.70
2022-12-05T13:21:58.739Z,13.20
2022-12-05T13:24:29.289Z,16.70
2022-12-05T13:27:01.398Z,10.43
2022-12-05T13:29:34.099Z,13.07
2022-12-05T13:32:03.779Z,13.57
2022-12-05T13:34:46.339Z,11.67
2022-12-05T13:37:41.198Z,15.50
2022-12-05T13:40:43.357Z,12.23
2022-12-05T13:43:13.414Z,16.77
2022-12-05T13:45:53.698Z,17.00
2022-12-05T13:48:24.768Z,10.30
2022-12-05T13:50:58.851Z,10.60
2022-12-05T13:53:32.662Z,14.37
2022-12-05T13:56:05.493Z,9.70
2022-12-05T13:58:49.357Z,12.53
2022-12-05T14:01:55.737Z,13.73
2022-12-05T14:04:50.119Z,12.00
2022-12-05T14:07:40.975Z,24.53
2022-12-05T14:10:09.740Z,10.17
2022-12-05T14:12:55.059Z,9.43
2022-12-05T14:15:32.837Z,9.37
2022-12-05T14:18:14.108Z,8.60
2022-12-05T14:20:52.783Z,9.20
2022-12-05T14:23:39.024Z,8.47
2022-12-05T14:26:17.565Z,10.07
2022-12-05T14:29:01.470Z,9.20
2022-12-05T14:31:48.545Z,9.67
2022-12-05T14:34:24.863Z,9.10
2022-12-05T14:37:01.593Z,9.33
2022-12-05T14:39:34.945Z,8.27
2022-12-05T14:42:06.811Z,8.60
2022-12-05T14:44:34.952Z,9.27
2022-12-05T14:47:07.664Z,9.07
2022-12-05T14:49:52.384Z,8.90
2022-12-05T14:52:22.897Z,9.50
2022-12-05T14:54:53.270Z,12.13
2022-12-05T14:57:22.952Z,25.50
2022-12-05T14:59:53.688Z,29.43
2022-12-05T15:02:27.931Z,24.20
2022-12-05T15:05:01.459Z,27.70
2022-12-05T15:07:34.507Z,8.67
2022-12-05T15:10:05.962Z,9.00
2022-12-05T15:12:40.544Z,9.17
2022-12-05T15:15:14.553Z,9.77
2022-12-05T15:17:48.546Z,8.57
2022-12-05T15:20:22.565Z,8.10
2022-12-05T15:22:50.269Z,7.67
2022-12-05T15:25:27.123Z,7.50
2022-12-05T15:27:57.353Z,8.10
2022-12-05T15:30:25.140Z,8.60
2022-12-05T15:32:59.221Z,8.37
2022-12-05T15:35:29.724Z,9.07
2022-12-05T15:38:00.031Z,11.00
2022-12-05T15:40:37.032Z,11.90
2022-12-05T15:43:28.684Z,11.37
2022-12-05T15:46:10.309Z,11.43
2022-12-05T15:48:39.276Z,11.67
2022-12-05T15:51:06.941Z,12.70
2022-12-05T15:53:38.059Z,11.07
2022-12-05T15:56:10.411Z,11.33
2022-12-05T15:58:42.806Z,12.60
2022-12-05T16:01:15.267Z,20.17
2022-12-05T16:03:51.843Z,15.77
2022-12-05T16:06:23.596Z,11.47
2022-12-05T16:08:52.616Z,11.93
2022-12-05T16:11:20.423Z,10.77
2022-12-05T16:13:52.361Z,11.90
2022-12-05T16:16:23.254Z,12.47
2022-12-05T16:18:55.547Z,11.67
2022-12-05T16:21:35.989Z,11.87
2022-12-05T16:24:09.217Z,12.00
2022-12-05T16:26:39.405Z,12.93
2022-12-05T16:29:09.368Z,12.27
2022-12-05T16:31:37.420Z,12.40
2022-12-05T16:34:08.665Z,11.90
2022-12-05T16:36:37.061Z,11.87
2022-12-05T16:39:06.994Z,11.33
2022-12-05T16:41:36.199Z,12.00
2022-12-05T16:44:11.471Z,12.00
2022-12-05T16:46:46.067Z,12.50
2022-12-05T16:49:20.243Z,11.53
2022-12-05T16:51:57.628Z,12.20
2022-12-05T16:54:25.196Z,12.20
2022-12-05T16:56:52.914Z,12.63
2022-12-05T16:59:24.956Z,14.30
2022-12-05T17:01:52.713Z,14.57
2022-12-05T17:04:21.697Z,14.50
2022-12-05T17:06:49.324Z,13.63
2022-12-05T17:09:16.936Z,14.73
2022-12-05T17:11:46.281Z,14.30
2022-12-05T17:14:15.644Z,15.13
2022-12-05T17:16:43.973Z,13.50
2022-12-05T17:19:12.034Z,14.80
2022-12-05T17:21:43.375Z,14.07
2022-12-05T17:24:15.703Z,14.17
2022-12-05T17:26:43.214Z,13.80
2022-12-05T17:29:11.552Z,13.73
2022-12-05T17:31:39.519Z,13.57
2022-12-05T17:34:16.639Z,12.23
2022-12-05T17:36:45.892Z,13.50
2022-12-05T17:39:13.899Z,13.27
2022-12-05T17:41:41.507Z,14.27
2022-12-05T17:44:13.789Z,13.73
2022-12-05T17:46:42.740Z,15.20
2022-12-05T17:49:14.668Z,13.50
2022-12-05T17:52:05.380Z,13.73
2022-12-05T17:54:31.955Z,13.50
2022-12-05T17:56:59.490Z,14.13
2022-12-05T17:59:27.095Z,14.10
2022-12-05T18:01:54.656Z,13.87
2022-12-05T18:07:09.719Z,13.83
2022-12-05T18:09:38.582Z,13.10
2022-12-05T18:12:06.588Z,12.90
2022-12-05T18:14:35.945Z,11.83
2022-12-05T18:17:03.849Z,13.20
2022-12-05T18:19:31.382Z,13.13
2022-12-05T18:21:58.909Z,12.57
2022-12-05T18:24:26.504Z,12.47
2022-12-05T18:26:56.048Z,12.17
2022-12-05T18:29:23.854Z,11.87
2022-12-05T18:31:51.406Z,12.67
2022-12-05T18:34:19.291Z,11.87
2022-12-05T18:36:46.871Z,12.67
2022-12-05T18:39:14.924Z,13.03
2022-12-05T18:41:42.894Z,17.23
2022-12-05T18:44:11.853Z,15.43
2022-12-05T18:46:39.473Z,17.20
2022-12-05T18:49:07.899Z,17.30
2022-12-05T18:51:35.456Z,12.17
2022-12-05T18:54:02.993Z,12.37
2022-12-05T18:56:34.506Z,14.03
2022-12-05T18:59:04.115Z,12.83
2022-12-05T19:01:34.563Z,12.43
2022-12-05T19:04:04.084Z,10.40
2022-12-05T19:06:34.191Z,15.50
2022-12-05T19:09:03.590Z,10.37
2022-12-05T19:11:31.186Z,8.80
2022-12-05T19:13:59.924Z,10.10
2022-12-05T19:16:28.976Z,9.30
2022-12-05T19:19:00.191Z,9.43
2022-12-05T19:21:30.064Z,10.00
2022-12-05T19:23:57.816Z,10.07
2022-12-05T19:26:26.352Z,10.53
2022-12-05T19:28:54.314Z,9.73
2022-12-05T19:31:23.800Z,10.00
2022-12-05T19:33:53.357Z,12.57
2022-12-05T19:36:23.781Z,12.33
2022-12-05T19:38:53.478Z,11.13
2022-12-05T19:41:23.097Z,10.50
2022-12-05T19:43:50.880Z,11.40
2022-12-05T19:46:20.210Z,11.97
2022-12-05T19:48:48.647Z,13.47
2022-12-05T19:51:16.243Z,12.27
2022-12-05T19:53:46.107Z,10.93
2022-12-05T19:56:16.074Z,12.60
2022-12-05T19:58:43.848Z,10.80
2022-12-05T20:01:13.193Z,14.80
2022-12-05T20:03:41.908Z,13.90
2022-12-05T20:06:10.779Z,12.53
2022-12-05T20:08:39.091Z,13.00
2022-12-05T20:11:10.915Z,12.37
2022-12-05T20:13:47.904Z,10.87
2022-12-05T20:16:18.385Z,13.37
2022-12-05T20:18:46.926Z,11.50
2022-12-05T20:21:16.692Z,11.47
2022-12-05T20:23:44.559Z,12.63
2022-12-05T20:26:15.744Z,12.50
2022-12-05T20:28:43.431Z,10.03
2022-12-05T20:31:13.186Z,20.60
2022-12-05T20:33:41.761Z,8.10
2022-12-05T20:36:12.465Z,9.53
2022-12-05T20:38:40.320Z,10.13
2022-12-05T20:41:11.029Z,8.87
2022-12-05T20:43:39.922Z,9.03
2022-12-05T20:46:09.276Z,9.07
2022-12-05T20:48:36.955Z,9.90
2022-12-05T20:51:05.829Z,12.33
2022-12-05T20:53:34.098Z,13.13
2022-12-05T20:56:04.311Z,13.53
2022-12-05T20:58:31.847Z,13.60
2022-12-05T21:01:01.362Z,14.30
2022-12-05T21:03:29.067Z,14.67
2022-12-05T21:05:56.676Z,13.23
2022-12-05T21:08:24.672Z,13.67
2022-12-05T21:10:53.920Z,13.90
2022-12-05T21:13:21.632Z,12.90
2022-12-05T21:15:49.161Z,13.47
2022-12-05T21:18:18.034Z,14.63
2022-12-05T21:20:45.559Z,18.67
2022-12-05T21:23:13.085Z,15.97
2022-12-05T21:25:40.602Z,15.23
2022-12-05T21:28:08.123Z,13.33
2022-12-05T21:30:35.675Z,14.73
2022-12-05T21:33:05.420Z,14.10
2022-12-05T21:35:34.324Z,14.17
2022-12-05T21:38:02.663Z,13.83
2022-12-05T21:40:30.215Z,14.23
2022-12-05T21:42:57.726Z,15.27
2022-12-05T21:45:25.286Z,17.33
2022-12-05T21:47:52.812Z,17.00
2022-12-05T21:50:20.324Z,19.70
2022-12-05T21:52:49.304Z,17.47
2022-12-05T21:55:17.061Z,17.07
2022-12-05T21:57:44.831Z,19.97
2022-12-05T22:00:13.101Z,17.63
2022-12-05T22:02:40.774Z,17.17
2022-12-05T22:05:09.076Z,19.00
2022-12-05T22:07:36.732Z,20.43
2022-12-05T22:10:07.359Z,19.37
2022-12-05T22:12:35.447Z,18.83
2022-12-05T22:15:02.944Z,21.07
2022-12-05T22:17:30.518Z,16.13
2022-12-05T22:19:58.369Z,17.23
2022-12-05T22:22:26.199Z,18.43
2022-12-05T22:24:53.780Z,17.30
2022-12-05T22:27:23.055Z,17.17
2022-12-05T22:29:52.822Z,17.83
2022-12-05T22:32:20.585Z,16.67
2022-12-05T22:34:48.114Z,17.27
2022-12-05T22:37:15.635Z,16.70
2022-12-05T22:39:43.171Z,16.43
2022-12-05T22:42:10.750Z,15.13
2022-12-05T22:44:39.619Z,16.83
2022-12-05T22:47:07.193Z,16.13
2022-12-05T22:49:34.749Z,16.67
2022-12-05T22:52:02.309Z,15.87
2022-12-05T22:54:30.477Z,16.23
2022-12-05T22:56:58.089Z,16.40
2022-12-05T22:59:25.610Z,17.90
2022-12-05T23:01:54.492Z,18.70
2022-12-05T23:04:22.241Z,17.00
2022-12-05T23:06:49.997Z,16.80
2022-12-05T23:09:17.674Z,18.10
2022-12-05T23:11:45.339Z,17.27
2022-12-05T23:14:13.025Z,16.80
2022-12-05T23:16:40.813Z,19.43
2022-12-05T23:19:10.034Z,20.67
2022-12-05T23:21:40.310Z,19.10
2022-12-05T23:24:10.189Z,20.30
2022-12-05T23:26:39.660Z,19.53
2022-12-05T23:29:07.422Z,19.70
2022-12-05T23:31:35.418Z,17.93
2022-12-05T23:34:05.424Z,18.63
2022-12-05T23:36:35.631Z,18.90
2022-12-05T23:39:03.714Z,17.23
2022-12-05T23:41:31.638Z,16.27
2022-12-05T23:43:59.320Z,20.57
2022-12-05T23:46:28.228Z,21.03
2022-12-05T23:48:56.154Z,18.70
2022-12-05T23:51:25.346Z,19.87
2022-12-05T23:53:56.314Z,20.33
2022-12-05T23:56:25.998Z,19.47
2022-12-05T23:58:54.754Z,17.03
